<?xml version="1.0" encoding="UTF-8" standalone="no" ?>
<gpx xmlns="http://www.topografix.com/GPX/1/1" xmlns:xsi="http://www.w3.org/2001/XMLSchema-instance" xsi:schemaLocation="http://www.topografix.com/GPX/1/1 http://www.topografix.com/GPX/1/1/gpx.xsd" version="1.1" creator="VisuGPX - https://www.visugpx.com">
  <metadata>
    <name>Chemere_IlesEnchanteesChenes_8-24km</name>
    <desc><![CDATA[gnerando idor: 8320456_12674239_13308104]]></desc>
  </metadata>
  <trk>
    <name><![CDATA[ChaumesRetz_LesChenes_7.7km-12674239]]></name>
    <extensions>
      <line xmlns="http://www.topografix.com/GPX/gpx_style/0/2">
        <color>00FF00</color>
        <width>4</width>
      </line>
    </extensions>
    <trkseg>
      <trkpt lat="47.1244" lon="-1.91433">
        <ele>6</ele>
        <time>2023-11-01T12:58:37Z</time>
      </trkpt>
      <trkpt lat="47.12448" lon="-1.91428">
        <ele>6</ele>
        <time>2023-11-01T12:58:49Z</time>
      </trkpt>
      <trkpt lat="47.12471" lon="-1.91417">
        <ele>7</ele>
        <time>2023-11-01T12:59:21Z</time>
      </trkpt>
      <trkpt lat="47.12482" lon="-1.91414">
        <ele>7</ele>
        <time>2023-11-01T12:59:36Z</time>
      </trkpt>
      <trkpt lat="47.1249" lon="-1.91406">
        <ele>7</ele>
        <time>2023-11-01T12:59:49Z</time>
      </trkpt>
      <trkpt lat="47.12502" lon="-1.91396">
        <ele>7</ele>
        <time>2023-11-01T13:00:07Z</time>
      </trkpt>
      <trkpt lat="47.12511" lon="-1.91384">
        <ele>7</ele>
        <time>2023-11-01T13:00:23Z</time>
      </trkpt>
      <trkpt lat="47.12529" lon="-1.91361">
        <ele>7</ele>
        <time>2023-11-01T13:00:55Z</time>
      </trkpt>
      <trkpt lat="47.12552" lon="-1.914">
        <ele>7</ele>
        <time>2023-11-01T13:01:42Z</time>
      </trkpt>
      <trkpt lat="47.12565" lon="-1.91422">
        <ele>7</ele>
        <time>2023-11-01T13:02:08Z</time>
      </trkpt>
      <trkpt lat="47.12564" lon="-1.9143">
        <ele>7</ele>
        <time>2023-11-01T13:02:16Z</time>
      </trkpt>
      <trkpt lat="47.12567" lon="-1.91443">
        <ele>7</ele>
        <time>2023-11-01T13:02:28Z</time>
      </trkpt>
      <trkpt lat="47.12559" lon="-1.91457">
        <ele>7</ele>
        <time>2023-11-01T13:02:45Z</time>
      </trkpt>
      <trkpt lat="47.1255" lon="-1.91491">
        <ele>7</ele>
        <time>2023-11-01T13:03:18Z</time>
      </trkpt>
      <trkpt lat="47.12549" lon="-1.91511">
        <ele>8</ele>
        <time>2023-11-01T13:03:36Z</time>
      </trkpt>
      <trkpt lat="47.12555" lon="-1.91561">
        <ele>8</ele>
        <time>2023-11-01T13:04:22Z</time>
      </trkpt>
      <trkpt lat="47.12557" lon="-1.9158">
        <ele>8</ele>
        <time>2023-11-01T13:04:40Z</time>
      </trkpt>
      <trkpt lat="47.1256" lon="-1.91598">
        <ele>8</ele>
        <time>2023-11-01T13:04:57Z</time>
      </trkpt>
      <trkpt lat="47.12574" lon="-1.9163">
        <ele>8</ele>
        <time>2023-11-01T13:05:31Z</time>
      </trkpt>
      <trkpt lat="47.12577" lon="-1.91647">
        <ele>7</ele>
        <time>2023-11-01T13:05:47Z</time>
      </trkpt>
      <trkpt lat="47.12577" lon="-1.91662">
        <ele>7</ele>
        <time>2023-11-01T13:06:01Z</time>
      </trkpt>
      <trkpt lat="47.12576" lon="-1.91689">
        <ele>8</ele>
        <time>2023-11-01T13:06:25Z</time>
      </trkpt>
      <trkpt lat="47.12573" lon="-1.91718">
        <ele>8</ele>
        <time>2023-11-01T13:06:52Z</time>
      </trkpt>
      <trkpt lat="47.12578" lon="-1.91768">
        <ele>8</ele>
        <time>2023-11-01T13:07:38Z</time>
      </trkpt>
      <trkpt lat="47.12578" lon="-1.91788">
        <ele>9</ele>
        <time>2023-11-01T13:07:56Z</time>
      </trkpt>
      <trkpt lat="47.12555" lon="-1.91844">
        <ele>9</ele>
        <time>2023-11-01T13:08:55Z</time>
      </trkpt>
      <trkpt lat="47.12542" lon="-1.91865">
        <ele>9</ele>
        <time>2023-11-01T13:09:21Z</time>
      </trkpt>
      <trkpt lat="47.12532" lon="-1.91864">
        <ele>10</ele>
        <time>2023-11-01T13:09:35Z</time>
      </trkpt>
      <trkpt lat="47.12521" lon="-1.91851">
        <ele>10</ele>
        <time>2023-11-01T13:09:53Z</time>
      </trkpt>
      <trkpt lat="47.12509" lon="-1.91849">
        <ele>10</ele>
        <time>2023-11-01T13:10:09Z</time>
      </trkpt>
      <trkpt lat="47.12499" lon="-1.91857">
        <ele>10</ele>
        <time>2023-11-01T13:10:25Z</time>
      </trkpt>
      <trkpt lat="47.12498" lon="-1.91881">
        <ele>9</ele>
        <time>2023-11-01T13:10:47Z</time>
      </trkpt>
      <trkpt lat="47.12498" lon="-1.91907">
        <ele>9</ele>
        <time>2023-11-01T13:11:10Z</time>
      </trkpt>
      <trkpt lat="47.12499" lon="-1.91917">
        <ele>9</ele>
        <time>2023-11-01T13:11:19Z</time>
      </trkpt>
      <trkpt lat="47.12504" lon="-1.91933">
        <ele>9</ele>
        <time>2023-11-01T13:11:35Z</time>
      </trkpt>
      <trkpt lat="47.1252" lon="-1.91943">
        <ele>9</ele>
        <time>2023-11-01T13:11:58Z</time>
      </trkpt>
      <trkpt lat="47.12536" lon="-1.91946">
        <ele>9</ele>
        <time>2023-11-01T13:12:20Z</time>
      </trkpt>
      <trkpt lat="47.12563" lon="-1.9195">
        <ele>10</ele>
        <time>2023-11-01T13:12:56Z</time>
      </trkpt>
      <trkpt lat="47.12577" lon="-1.91953">
        <ele>10</ele>
        <time>2023-11-01T13:13:15Z</time>
      </trkpt>
      <trkpt lat="47.12591" lon="-1.91957">
        <ele>10</ele>
        <time>2023-11-01T13:13:34Z</time>
      </trkpt>
      <trkpt lat="47.12598" lon="-1.9197">
        <ele>10</ele>
        <time>2023-11-01T13:13:49Z</time>
      </trkpt>
      <trkpt lat="47.12594" lon="-1.91989">
        <ele>10</ele>
        <time>2023-11-01T13:14:07Z</time>
      </trkpt>
      <trkpt lat="47.12575" lon="-1.92065">
        <ele>8</ele>
        <time>2023-11-01T13:15:21Z</time>
      </trkpt>
      <trkpt lat="47.12569" lon="-1.92088">
        <ele>8</ele>
        <time>2023-11-01T13:15:43Z</time>
      </trkpt>
      <trkpt lat="47.12567" lon="-1.92149">
        <ele>9</ele>
        <time>2023-11-01T13:16:39Z</time>
      </trkpt>
      <trkpt lat="47.12521" lon="-1.92393">
        <ele>7</ele>
        <time>2023-11-01T13:20:28Z</time>
      </trkpt>
      <trkpt lat="47.12487" lon="-1.92566">
        <ele>8</ele>
        <time>2023-11-01T13:23:12Z</time>
      </trkpt>
      <trkpt lat="47.12467" lon="-1.92669">
        <ele>7</ele>
        <time>2023-11-01T13:24:49Z</time>
      </trkpt>
      <trkpt lat="47.12434" lon="-1.92681">
        <ele>7</ele>
        <time>2023-11-01T13:25:35Z</time>
      </trkpt>
      <trkpt lat="47.12352" lon="-1.9271">
        <ele>8</ele>
        <time>2023-11-01T13:27:27Z</time>
      </trkpt>
      <trkpt lat="47.12335" lon="-1.92709">
        <ele>8</ele>
        <time>2023-11-01T13:27:50Z</time>
      </trkpt>
      <trkpt lat="47.12327" lon="-1.9267">
        <ele>8</ele>
        <time>2023-11-01T13:28:27Z</time>
      </trkpt>
      <trkpt lat="47.12301" lon="-1.92593">
        <ele>7</ele>
        <time>2023-11-01T13:29:45Z</time>
      </trkpt>
      <trkpt lat="47.12282" lon="-1.92553">
        <ele>8</ele>
        <time>2023-11-01T13:30:29Z</time>
      </trkpt>
      <trkpt lat="47.12265" lon="-1.92533">
        <ele>8</ele>
        <time>2023-11-01T13:30:58Z</time>
      </trkpt>
      <trkpt lat="47.12247" lon="-1.9253">
        <ele>8</ele>
        <time>2023-11-01T13:31:22Z</time>
      </trkpt>
      <trkpt lat="47.12237" lon="-1.92516">
        <ele>8</ele>
        <time>2023-11-01T13:31:41Z</time>
      </trkpt>
      <trkpt lat="47.12214" lon="-1.92456">
        <ele>8</ele>
        <time>2023-11-01T13:32:43Z</time>
      </trkpt>
      <trkpt lat="47.12205" lon="-1.92419">
        <ele>9</ele>
        <time>2023-11-01T13:33:19Z</time>
      </trkpt>
      <trkpt lat="47.12194" lon="-1.9238">
        <ele>9</ele>
        <time>2023-11-01T13:33:57Z</time>
      </trkpt>
      <trkpt lat="47.12191" lon="-1.92358">
        <ele>9</ele>
        <time>2023-11-01T13:34:18Z</time>
      </trkpt>
      <trkpt lat="47.12201" lon="-1.92329">
        <ele>9</ele>
        <time>2023-11-01T13:34:47Z</time>
      </trkpt>
      <trkpt lat="47.12207" lon="-1.92303">
        <ele>9</ele>
        <time>2023-11-01T13:35:12Z</time>
      </trkpt>
      <trkpt lat="47.122" lon="-1.92287">
        <ele>9</ele>
        <time>2023-11-01T13:35:29Z</time>
      </trkpt>
      <trkpt lat="47.12191" lon="-1.92271">
        <ele>9</ele>
        <time>2023-11-01T13:35:48Z</time>
      </trkpt>
      <trkpt lat="47.12186" lon="-1.92244">
        <ele>9</ele>
        <time>2023-11-01T13:36:14Z</time>
      </trkpt>
      <trkpt lat="47.12182" lon="-1.92211">
        <ele>9</ele>
        <time>2023-11-01T13:36:44Z</time>
      </trkpt>
      <trkpt lat="47.12151" lon="-1.92169">
        <ele>9</ele>
        <time>2023-11-01T13:37:40Z</time>
      </trkpt>
      <trkpt lat="47.12141" lon="-1.92139">
        <ele>10</ele>
        <time>2023-11-01T13:38:11Z</time>
      </trkpt>
      <trkpt lat="47.12102" lon="-1.92159">
        <ele>10</ele>
        <time>2023-11-01T13:39:06Z</time>
      </trkpt>
      <trkpt lat="47.12081" lon="-1.9216">
        <ele>10</ele>
        <time>2023-11-01T13:39:34Z</time>
      </trkpt>
      <trkpt lat="47.12055" lon="-1.92165">
        <ele>10</ele>
        <time>2023-11-01T13:40:09Z</time>
      </trkpt>
      <trkpt lat="47.12025" lon="-1.9217">
        <ele>11</ele>
        <time>2023-11-01T13:40:49Z</time>
      </trkpt>
      <trkpt lat="47.11998" lon="-1.92175">
        <ele>11</ele>
        <time>2023-11-01T13:41:26Z</time>
      </trkpt>
      <trkpt lat="47.11979" lon="-1.9219">
        <ele>12</ele>
        <time>2023-11-01T13:41:54Z</time>
      </trkpt>
      <trkpt lat="47.1195" lon="-1.92228">
        <ele>12</ele>
        <time>2023-11-01T13:42:46Z</time>
      </trkpt>
      <trkpt lat="47.11906" lon="-1.92274">
        <ele>13</ele>
        <time>2023-11-01T13:43:58Z</time>
      </trkpt>
      <trkpt lat="47.11868" lon="-1.92304">
        <ele>12</ele>
        <time>2023-11-01T13:44:56Z</time>
      </trkpt>
      <trkpt lat="47.1184" lon="-1.9232">
        <ele>12</ele>
        <time>2023-11-01T13:45:36Z</time>
      </trkpt>
      <trkpt lat="47.11806" lon="-1.92332">
        <ele>12</ele>
        <time>2023-11-01T13:46:23Z</time>
      </trkpt>
      <trkpt lat="47.11772" lon="-1.92345">
        <ele>12</ele>
        <time>2023-11-01T13:47:09Z</time>
      </trkpt>
      <trkpt lat="47.1175" lon="-1.92361">
        <ele>12</ele>
        <time>2023-11-01T13:47:42Z</time>
      </trkpt>
      <trkpt lat="47.11736" lon="-1.92375">
        <ele>12</ele>
        <time>2023-11-01T13:48:05Z</time>
      </trkpt>
      <trkpt lat="47.11706" lon="-1.92409">
        <ele>12</ele>
        <time>2023-11-01T13:48:55Z</time>
      </trkpt>
      <trkpt lat="47.11691" lon="-1.92439">
        <ele>12</ele>
        <time>2023-11-01T13:49:29Z</time>
      </trkpt>
      <trkpt lat="47.11674" lon="-1.92486">
        <ele>13</ele>
        <time>2023-11-01T13:50:17Z</time>
      </trkpt>
      <trkpt lat="47.11656" lon="-1.92522">
        <ele>14</ele>
        <time>2023-11-01T13:50:58Z</time>
      </trkpt>
      <trkpt lat="47.11632" lon="-1.92559">
        <ele>15</ele>
        <time>2023-11-01T13:51:44Z</time>
      </trkpt>
      <trkpt lat="47.11622" lon="-1.92587">
        <ele>15</ele>
        <time>2023-11-01T13:52:13Z</time>
      </trkpt>
      <trkpt lat="47.1162" lon="-1.92615">
        <ele>15</ele>
        <time>2023-11-01T13:52:39Z</time>
      </trkpt>
      <trkpt lat="47.11594" lon="-1.92654">
        <ele>15</ele>
        <time>2023-11-01T13:53:28Z</time>
      </trkpt>
      <trkpt lat="47.11575" lon="-1.92679">
        <ele>15</ele>
        <time>2023-11-01T13:54:02Z</time>
      </trkpt>
      <trkpt lat="47.11554" lon="-1.92718">
        <ele>16</ele>
        <time>2023-11-01T13:54:48Z</time>
      </trkpt>
      <trkpt lat="47.11527" lon="-1.92775">
        <ele>16</ele>
        <time>2023-11-01T13:55:51Z</time>
      </trkpt>
      <trkpt lat="47.11491" lon="-1.9284">
        <ele>16</ele>
        <time>2023-11-01T13:57:07Z</time>
      </trkpt>
      <trkpt lat="47.11482" lon="-1.9289">
        <ele>16</ele>
        <time>2023-11-01T13:57:54Z</time>
      </trkpt>
      <trkpt lat="47.11471" lon="-1.92918">
        <ele>16</ele>
        <time>2023-11-01T13:58:23Z</time>
      </trkpt>
      <trkpt lat="47.11451" lon="-1.92957">
        <ele>15</ele>
        <time>2023-11-01T13:59:07Z</time>
      </trkpt>
      <trkpt lat="47.11443" lon="-1.92979">
        <ele>15</ele>
        <time>2023-11-01T13:59:30Z</time>
      </trkpt>
      <trkpt lat="47.11436" lon="-1.93014">
        <ele>15</ele>
        <time>2023-11-01T14:00:03Z</time>
      </trkpt>
      <trkpt lat="47.11426" lon="-1.93042">
        <ele>15</ele>
        <time>2023-11-01T14:00:32Z</time>
      </trkpt>
      <trkpt lat="47.11403" lon="-1.93081">
        <ele>15</ele>
        <time>2023-11-01T14:01:19Z</time>
      </trkpt>
      <trkpt lat="47.11381" lon="-1.93149">
        <ele>14</ele>
        <time>2023-11-01T14:02:27Z</time>
      </trkpt>
      <trkpt lat="47.11369" lon="-1.93162">
        <ele>14</ele>
        <time>2023-11-01T14:02:47Z</time>
      </trkpt>
      <trkpt lat="47.1135" lon="-1.93132">
        <ele>15</ele>
        <time>2023-11-01T14:03:24Z</time>
      </trkpt>
      <trkpt lat="47.11318" lon="-1.93096">
        <ele>16</ele>
        <time>2023-11-01T14:04:18Z</time>
      </trkpt>
      <trkpt lat="47.11288" lon="-1.93044">
        <ele>16</ele>
        <time>2023-11-01T14:05:20Z</time>
      </trkpt>
      <trkpt lat="47.11267" lon="-1.93005">
        <ele>17</ele>
        <time>2023-11-01T14:06:05Z</time>
      </trkpt>
      <trkpt lat="47.11252" lon="-1.9296">
        <ele>17</ele>
        <time>2023-11-01T14:06:51Z</time>
      </trkpt>
      <trkpt lat="47.1124" lon="-1.92918">
        <ele>17</ele>
        <time>2023-11-01T14:07:32Z</time>
      </trkpt>
      <trkpt lat="47.11236" lon="-1.92884">
        <ele>17</ele>
        <time>2023-11-01T14:08:03Z</time>
      </trkpt>
      <trkpt lat="47.11221" lon="-1.92815">
        <ele>18</ele>
        <time>2023-11-01T14:09:09Z</time>
      </trkpt>
      <trkpt lat="47.112" lon="-1.92774">
        <ele>18</ele>
        <time>2023-11-01T14:09:56Z</time>
      </trkpt>
      <trkpt lat="47.11175" lon="-1.92726">
        <ele>19</ele>
        <time>2023-11-01T14:10:51Z</time>
      </trkpt>
      <trkpt lat="47.1115" lon="-1.92693">
        <ele>19</ele>
        <time>2023-11-01T14:11:35Z</time>
      </trkpt>
      <trkpt lat="47.11119" lon="-1.92657">
        <ele>18</ele>
        <time>2023-11-01T14:12:28Z</time>
      </trkpt>
      <trkpt lat="47.11092" lon="-1.92626">
        <ele>18</ele>
        <time>2023-11-01T14:13:14Z</time>
      </trkpt>
      <trkpt lat="47.11075" lon="-1.92594">
        <ele>18</ele>
        <time>2023-11-01T14:13:51Z</time>
      </trkpt>
      <trkpt lat="47.11055" lon="-1.92567">
        <ele>18</ele>
        <time>2023-11-01T14:14:27Z</time>
      </trkpt>
      <trkpt lat="47.11041" lon="-1.92514">
        <ele>18</ele>
        <time>2023-11-01T14:15:19Z</time>
      </trkpt>
      <trkpt lat="47.11025" lon="-1.92455">
        <ele>18</ele>
        <time>2023-11-01T14:16:16Z</time>
      </trkpt>
      <trkpt lat="47.11012" lon="-1.92431">
        <ele>18</ele>
        <time>2023-11-01T14:16:44Z</time>
      </trkpt>
      <trkpt lat="47.10994" lon="-1.92395">
        <ele>19</ele>
        <time>2023-11-01T14:17:25Z</time>
      </trkpt>
      <trkpt lat="47.10975" lon="-1.92352">
        <ele>19</ele>
        <time>2023-11-01T14:18:11Z</time>
      </trkpt>
      <trkpt lat="47.10958" lon="-1.92309">
        <ele>19</ele>
        <time>2023-11-01T14:18:56Z</time>
      </trkpt>
      <trkpt lat="47.10939" lon="-1.92264">
        <ele>18</ele>
        <time>2023-11-01T14:19:45Z</time>
      </trkpt>
      <trkpt lat="47.10925" lon="-1.92234">
        <ele>19</ele>
        <time>2023-11-01T14:20:18Z</time>
      </trkpt>
      <trkpt lat="47.10903" lon="-1.92187">
        <ele>19</ele>
        <time>2023-11-01T14:21:09Z</time>
      </trkpt>
      <trkpt lat="47.10893" lon="-1.92167">
        <ele>19</ele>
        <time>2023-11-01T14:21:32Z</time>
      </trkpt>
      <trkpt lat="47.10879" lon="-1.92156">
        <ele>19</ele>
        <time>2023-11-01T14:21:53Z</time>
      </trkpt>
      <trkpt lat="47.10872" lon="-1.92143">
        <ele>19</ele>
        <time>2023-11-01T14:22:08Z</time>
      </trkpt>
      <trkpt lat="47.10887" lon="-1.92141">
        <ele>19</ele>
        <time>2023-11-01T14:22:28Z</time>
      </trkpt>
      <trkpt lat="47.10906" lon="-1.92138">
        <ele>18</ele>
        <time>2023-11-01T14:22:54Z</time>
      </trkpt>
      <trkpt lat="47.10938" lon="-1.92118">
        <ele>17</ele>
        <time>2023-11-01T14:23:40Z</time>
      </trkpt>
      <trkpt lat="47.10951" lon="-1.92108">
        <ele>17</ele>
        <time>2023-11-01T14:24:00Z</time>
      </trkpt>
      <trkpt lat="47.10957" lon="-1.92102">
        <ele>17</ele>
        <time>2023-11-01T14:24:09Z</time>
      </trkpt>
      <trkpt lat="47.10992" lon="-1.92078">
        <ele>17</ele>
        <time>2023-11-01T14:25:01Z</time>
      </trkpt>
      <trkpt lat="47.11041" lon="-1.92036">
        <ele>18</ele>
        <time>2023-11-01T14:26:17Z</time>
      </trkpt>
      <trkpt lat="47.11097" lon="-1.91976">
        <ele>19</ele>
        <time>2023-11-01T14:27:49Z</time>
      </trkpt>
      <trkpt lat="47.11145" lon="-1.91908">
        <ele>16</ele>
        <time>2023-11-01T14:29:18Z</time>
      </trkpt>
      <trkpt lat="47.112" lon="-1.9183">
        <ele>15</ele>
        <time>2023-11-01T14:31:00Z</time>
      </trkpt>
      <trkpt lat="47.11237" lon="-1.91783">
        <ele>14</ele>
        <time>2023-11-01T14:32:05Z</time>
      </trkpt>
      <trkpt lat="47.11263" lon="-1.91747">
        <ele>13</ele>
        <time>2023-11-01T14:32:53Z</time>
      </trkpt>
      <trkpt lat="47.11269" lon="-1.91726">
        <ele>13</ele>
        <time>2023-11-01T14:33:14Z</time>
      </trkpt>
      <trkpt lat="47.11268" lon="-1.91714">
        <ele>13</ele>
        <time>2023-11-01T14:33:25Z</time>
      </trkpt>
      <trkpt lat="47.11255" lon="-1.91715">
        <ele>13</ele>
        <time>2023-11-01T14:33:42Z</time>
      </trkpt>
      <trkpt lat="47.11247" lon="-1.91712">
        <ele>13</ele>
        <time>2023-11-01T14:33:53Z</time>
      </trkpt>
      <trkpt lat="47.1124" lon="-1.91676">
        <ele>12</ele>
        <time>2023-11-01T14:34:27Z</time>
      </trkpt>
      <trkpt lat="47.1123" lon="-1.91648">
        <ele>13</ele>
        <time>2023-11-01T14:34:56Z</time>
      </trkpt>
      <trkpt lat="47.11208" lon="-1.91581">
        <ele>13</ele>
        <time>2023-11-01T14:36:03Z</time>
      </trkpt>
      <trkpt lat="47.1119" lon="-1.91538">
        <ele>12</ele>
        <time>2023-11-01T14:36:49Z</time>
      </trkpt>
      <trkpt lat="47.11171" lon="-1.91489">
        <ele>12</ele>
        <time>2023-11-01T14:37:41Z</time>
      </trkpt>
      <trkpt lat="47.11154" lon="-1.91426">
        <ele>12</ele>
        <time>2023-11-01T14:38:42Z</time>
      </trkpt>
      <trkpt lat="47.11136" lon="-1.91369">
        <ele>13</ele>
        <time>2023-11-01T14:39:39Z</time>
      </trkpt>
      <trkpt lat="47.11119" lon="-1.91283">
        <ele>13</ele>
        <time>2023-11-01T14:41:00Z</time>
      </trkpt>
      <trkpt lat="47.11113" lon="-1.91265">
        <ele>14</ele>
        <time>2023-11-01T14:41:19Z</time>
      </trkpt>
      <trkpt lat="47.1112" lon="-1.91233">
        <ele>14</ele>
        <time>2023-11-01T14:41:49Z</time>
      </trkpt>
      <trkpt lat="47.11134" lon="-1.91154">
        <ele>12</ele>
        <time>2023-11-01T14:43:03Z</time>
      </trkpt>
      <trkpt lat="47.11145" lon="-1.9109">
        <ele>11</ele>
        <time>2023-11-01T14:44:03Z</time>
      </trkpt>
      <trkpt lat="47.11159" lon="-1.91056">
        <ele>10</ele>
        <time>2023-11-01T14:44:39Z</time>
      </trkpt>
      <trkpt lat="47.11179" lon="-1.91008">
        <ele>10</ele>
        <time>2023-11-01T14:45:31Z</time>
      </trkpt>
      <trkpt lat="47.11191" lon="-1.90953">
        <ele>12</ele>
        <time>2023-11-01T14:46:23Z</time>
      </trkpt>
      <trkpt lat="47.11199" lon="-1.9092">
        <ele>12</ele>
        <time>2023-11-01T14:46:55Z</time>
      </trkpt>
      <trkpt lat="47.11199" lon="-1.90855">
        <ele>11</ele>
        <time>2023-11-01T14:47:54Z</time>
      </trkpt>
      <trkpt lat="47.112" lon="-1.90819">
        <ele>11</ele>
        <time>2023-11-01T14:48:27Z</time>
      </trkpt>
      <trkpt lat="47.11206" lon="-1.9076">
        <ele>11</ele>
        <time>2023-11-01T14:49:21Z</time>
      </trkpt>
      <trkpt lat="47.11213" lon="-1.90704">
        <ele>11</ele>
        <time>2023-11-01T14:50:12Z</time>
      </trkpt>
      <trkpt lat="47.11224" lon="-1.90642">
        <ele>12</ele>
        <time>2023-11-01T14:51:11Z</time>
      </trkpt>
      <trkpt lat="47.1124" lon="-1.90589">
        <ele>13</ele>
        <time>2023-11-01T14:52:03Z</time>
      </trkpt>
      <trkpt lat="47.11268" lon="-1.90528">
        <ele>12</ele>
        <time>2023-11-01T14:53:10Z</time>
      </trkpt>
      <trkpt lat="47.11278" lon="-1.90497">
        <ele>12</ele>
        <time>2023-11-01T14:53:41Z</time>
      </trkpt>
      <trkpt lat="47.11294" lon="-1.90515">
        <ele>12</ele>
        <time>2023-11-01T14:54:08Z</time>
      </trkpt>
      <trkpt lat="47.11302" lon="-1.9054">
        <ele>11</ele>
        <time>2023-11-01T14:54:33Z</time>
      </trkpt>
      <trkpt lat="47.11316" lon="-1.90563">
        <ele>10</ele>
        <time>2023-11-01T14:55:01Z</time>
      </trkpt>
      <trkpt lat="47.11325" lon="-1.90588">
        <ele>9</ele>
        <time>2023-11-01T14:55:27Z</time>
      </trkpt>
      <trkpt lat="47.11333" lon="-1.90616">
        <ele>9</ele>
        <time>2023-11-01T14:55:55Z</time>
      </trkpt>
      <trkpt lat="47.11344" lon="-1.90644">
        <ele>9</ele>
        <time>2023-11-01T14:56:24Z</time>
      </trkpt>
      <trkpt lat="47.11351" lon="-1.90676">
        <ele>9</ele>
        <time>2023-11-01T14:56:54Z</time>
      </trkpt>
      <trkpt lat="47.11362" lon="-1.90707">
        <ele>8</ele>
        <time>2023-11-01T14:57:26Z</time>
      </trkpt>
      <trkpt lat="47.11369" lon="-1.90732">
        <ele>8</ele>
        <time>2023-11-01T14:57:51Z</time>
      </trkpt>
      <trkpt lat="47.1138" lon="-1.90762">
        <ele>8</ele>
        <time>2023-11-01T14:58:22Z</time>
      </trkpt>
      <trkpt lat="47.1139" lon="-1.90797">
        <ele>8</ele>
        <time>2023-11-01T14:58:56Z</time>
      </trkpt>
      <trkpt lat="47.11402" lon="-1.90819">
        <ele>9</ele>
        <time>2023-11-01T14:59:22Z</time>
      </trkpt>
      <trkpt lat="47.11431" lon="-1.90854">
        <ele>9</ele>
        <time>2023-11-01T15:00:12Z</time>
      </trkpt>
      <trkpt lat="47.11449" lon="-1.90881">
        <ele>8</ele>
        <time>2023-11-01T15:00:46Z</time>
      </trkpt>
      <trkpt lat="47.11466" lon="-1.90911">
        <ele>8</ele>
        <time>2023-11-01T15:01:22Z</time>
      </trkpt>
      <trkpt lat="47.11484" lon="-1.9093">
        <ele>8</ele>
        <time>2023-11-01T15:01:51Z</time>
      </trkpt>
      <trkpt lat="47.11498" lon="-1.90949">
        <ele>9</ele>
        <time>2023-11-01T15:02:17Z</time>
      </trkpt>
      <trkpt lat="47.11536" lon="-1.90993">
        <ele>9</ele>
        <time>2023-11-01T15:03:21Z</time>
      </trkpt>
      <trkpt lat="47.11549" lon="-1.91021">
        <ele>9</ele>
        <time>2023-11-01T15:03:52Z</time>
      </trkpt>
      <trkpt lat="47.11567" lon="-1.911">
        <ele>7</ele>
        <time>2023-11-01T15:05:08Z</time>
      </trkpt>
      <trkpt lat="47.11578" lon="-1.91135">
        <ele>6</ele>
        <time>2023-11-01T15:05:43Z</time>
      </trkpt>
      <trkpt lat="47.11592" lon="-1.91199">
        <ele>6</ele>
        <time>2023-11-01T15:06:44Z</time>
      </trkpt>
      <trkpt lat="47.11599" lon="-1.91222">
        <ele>6</ele>
        <time>2023-11-01T15:07:07Z</time>
      </trkpt>
      <trkpt lat="47.11616" lon="-1.91265">
        <ele>7</ele>
        <time>2023-11-01T15:07:52Z</time>
      </trkpt>
      <trkpt lat="47.11634" lon="-1.91309">
        <ele>9</ele>
        <time>2023-11-01T15:08:38Z</time>
      </trkpt>
      <trkpt lat="47.11633" lon="-1.91364">
        <ele>10</ele>
        <time>2023-11-01T15:09:28Z</time>
      </trkpt>
      <trkpt lat="47.1164" lon="-1.91402">
        <ele>10</ele>
        <time>2023-11-01T15:10:04Z</time>
      </trkpt>
      <trkpt lat="47.11672" lon="-1.9149">
        <ele>12</ele>
        <time>2023-11-01T15:11:35Z</time>
      </trkpt>
      <trkpt lat="47.11686" lon="-1.9153">
        <ele>12</ele>
        <time>2023-11-01T15:12:15Z</time>
      </trkpt>
      <trkpt lat="47.1169" lon="-1.91541">
        <ele>12</ele>
        <time>2023-11-01T15:12:27Z</time>
      </trkpt>
      <trkpt lat="47.117" lon="-1.91567">
        <ele>12</ele>
        <time>2023-11-01T15:12:54Z</time>
      </trkpt>
      <trkpt lat="47.11711" lon="-1.9159">
        <ele>12</ele>
        <time>2023-11-01T15:13:19Z</time>
      </trkpt>
      <trkpt lat="47.11723" lon="-1.9162">
        <ele>12</ele>
        <time>2023-11-01T15:13:51Z</time>
      </trkpt>
      <trkpt lat="47.11731" lon="-1.91626">
        <ele>12</ele>
        <time>2023-11-01T15:14:03Z</time>
      </trkpt>
      <trkpt lat="47.1176" lon="-1.91634">
        <ele>13</ele>
        <time>2023-11-01T15:14:42Z</time>
      </trkpt>
      <trkpt lat="47.11777" lon="-1.91635">
        <ele>13</ele>
        <time>2023-11-01T15:15:05Z</time>
      </trkpt>
      <trkpt lat="47.11806" lon="-1.91622">
        <ele>13</ele>
        <time>2023-11-01T15:15:46Z</time>
      </trkpt>
      <trkpt lat="47.11857" lon="-1.91605">
        <ele>13</ele>
        <time>2023-11-01T15:16:55Z</time>
      </trkpt>
      <trkpt lat="47.11878" lon="-1.91589">
        <ele>14</ele>
        <time>2023-11-01T15:17:27Z</time>
      </trkpt>
      <trkpt lat="47.11945" lon="-1.91482">
        <ele>14</ele>
        <time>2023-11-01T15:19:39Z</time>
      </trkpt>
      <trkpt lat="47.11966" lon="-1.91456">
        <ele>14</ele>
        <time>2023-11-01T15:20:16Z</time>
      </trkpt>
      <trkpt lat="47.11994" lon="-1.91438">
        <ele>14</ele>
        <time>2023-11-01T15:20:56Z</time>
      </trkpt>
      <trkpt lat="47.12026" lon="-1.91422">
        <ele>13</ele>
        <time>2023-11-01T15:21:42Z</time>
      </trkpt>
      <trkpt lat="47.12048" lon="-1.91403">
        <ele>12</ele>
        <time>2023-11-01T15:22:16Z</time>
      </trkpt>
      <trkpt lat="47.12064" lon="-1.91387">
        <ele>12</ele>
        <time>2023-11-01T15:22:41Z</time>
      </trkpt>
      <trkpt lat="47.12101" lon="-1.91321">
        <ele>11</ele>
        <time>2023-11-01T15:23:59Z</time>
      </trkpt>
      <trkpt lat="47.12124" lon="-1.9128">
        <ele>10</ele>
        <time>2023-11-01T15:24:47Z</time>
      </trkpt>
      <trkpt lat="47.12146" lon="-1.91301">
        <ele>9</ele>
        <time>2023-11-01T15:25:22Z</time>
      </trkpt>
      <trkpt lat="47.12172" lon="-1.91335">
        <ele>9</ele>
        <time>2023-11-01T15:26:09Z</time>
      </trkpt>
      <trkpt lat="47.12222" lon="-1.91388">
        <ele>10</ele>
        <time>2023-11-01T15:27:31Z</time>
      </trkpt>
      <trkpt lat="47.12241" lon="-1.91385">
        <ele>9</ele>
        <time>2023-11-01T15:27:57Z</time>
      </trkpt>
      <trkpt lat="47.12263" lon="-1.91363">
        <ele>9</ele>
        <time>2023-11-01T15:28:32Z</time>
      </trkpt>
      <trkpt lat="47.12292" lon="-1.91314">
        <ele>8</ele>
        <time>2023-11-01T15:29:31Z</time>
      </trkpt>
      <trkpt lat="47.12307" lon="-1.91334">
        <ele>8</ele>
        <time>2023-11-01T15:29:58Z</time>
      </trkpt>
      <trkpt lat="47.12347" lon="-1.91374">
        <ele>8</ele>
        <time>2023-11-01T15:31:03Z</time>
      </trkpt>
      <trkpt lat="47.12378" lon="-1.91401">
        <ele>7</ele>
        <time>2023-11-01T15:31:51Z</time>
      </trkpt>
      <trkpt lat="47.12399" lon="-1.91424">
        <ele>7</ele>
        <time>2023-11-01T15:32:26Z</time>
      </trkpt>
      <trkpt lat="47.12403" lon="-1.91431">
        <ele>6</ele>
        <time>2023-11-01T15:32:34Z</time>
      </trkpt>
      <trkpt lat="47.12408" lon="-1.91435">
        <ele>6</ele>
        <time>2023-11-01T15:32:42Z</time>
      </trkpt>
      <trkpt lat="47.12417" lon="-1.91438">
        <ele>6</ele>
        <time>2023-11-01T15:32:54Z</time>
      </trkpt>
      <trkpt lat="47.12425" lon="-1.91439">
        <ele>6</ele>
        <time>2023-11-01T15:33:05Z</time>
      </trkpt>
      <trkpt lat="47.12433" lon="-1.91437">
        <ele>6</ele>
        <time>2023-11-01T15:33:15Z</time>
      </trkpt>
    </trkseg>
  </trk>
</gpx>